Terminal Aerodrome Forecast
Issued by NWS

Home | Current Version | Previous Version | Text Only | Print | Product List | Glossary On
Versions: 1 2 3 4 5 6 7 8 9 10 11 12 13
000
FTUS42 KTAE 190500
TAFECP
TAF
KECP 190540Z 1906/2006 00000KT P6SM BKN120 OVC250
     FM191300 06006KT P6SM BKN040 OVC100
     FM191800 04007KT 5SM -RA OVC040
     FM200200 08003KT P6SM OVC050=

USA.gov is the U.S. government's official web portal to all federal, state and local government web resources and services.